sensor_id;sensor_type;location;lat;lon;timestamp;noise_LAeq;noise_LA_min;noise_LA_max;noise_LA01;noise_LA95
66274;Laerm;58450;52.150;4.466;2022-12-05T00:01:30;38.09;35.05;49.97;;
66274;Laerm;58450;52.150;4.466;2022-12-05T00:04:03;40.65;34.84;62.72;;
66274;Laerm;58450;52.150;4.466;2022-12-05T00:06:32;37.38;34.53;44.42;;
66274;Laerm;58450;52.150;4.466;2022-12-05T00:09:00;42.45;35.11;58.25;;
66274;Laerm;58450;52.150;4.466;2022-12-05T00:11:29;36.93;35.03;39.62;;
66274;Laerm;58450;52.150;4.466;2022-12-05T00:13:58;36.88;34.42;42.00;;
66274;Laerm;58450;52.150;4.466;2022-12-05T00:16:27;37.00;34.50;53.97;;
66274;Laerm;58450;52.150;4.466;2022-12-05T00:18:55;40.87;34.89;57.81;;
66274;Laerm;58450;52.150;4.466;2022-12-05T00:21:26;36.86;34.74;40.11;;
66274;Laerm;58450;52.150;4.466;2022-12-05T00:23:55;49.93;34.96;73.81;;
66274;Laerm;58450;52.150;4.466;2022-12-05T00:26:23;46.81;34.71;74.10;;
66274;Laerm;58450;52.150;4.466;2022-12-05T00:28:51;47.96;34.98;75.52;;
66274;Laerm;58450;52.150;4.466;2022-12-05T00:31:20;37.25;34.77;48.96;;
66274;Laerm;58450;52.150;4.466;2022-12-05T00:33:49;40.09;35.00;58.25;;
66274;Laerm;58450;52.150;4.466;2022-12-05T00:36:18;46.00;34.76;68.62;;
66274;Laerm;58450;52.150;4.466;2022-12-05T00:38:47;37.61;34.76;51.76;;
66274;Laerm;58450;52.150;4.466;2022-12-05T00:41:18;38.02;34.70;51.70;;
66274;Laerm;58450;52.150;4.466;2022-12-05T00:43:45;37.38;34.98;51.08;;
66274;Laerm;58450;52.150;4.466;2022-12-05T00:46:14;43.01;34.72;64.06;;
66274;Laerm;58450;52.150;4.466;2022-12-05T00:48:42;42.20;34.17;59.48;;
66274;Laerm;58450;52.150;4.466;2022-12-05T00:51:12;36.80;34.65;42.71;;
66274;Laerm;58450;52.150;4.466;2022-12-05T00:53:40;41.24;34.67;58.07;;
66274;Laerm;58450;52.150;4.466;2022-12-05T00:56:11;37.57;34.83;54.03;;
66274;Laerm;58450;52.150;4.466;2022-12-05T00:58:39;37.59;34.73;57.19;;
66274;Laerm;58450;52.150;4.466;2022-12-05T01:01:07;45.04;34.62;66.22;;
66274;Laerm;58450;52.150;4.466;2022-12-05T01:03:35;41.30;34.74;68.15;;
66274;Laerm;58450;52.150;4.466;2022-12-05T01:06:03;39.43;34.75;66.19;;
66274;Laerm;58450;52.150;4.466;2022-12-05T01:08:31;37.20;34.66;51.96;;
66274;Laerm;58450;52.150;4.466;2022-12-05T01:10:59;40.18;34.84;59.42;;
66274;Laerm;58450;52.150;4.466;2022-12-05T01:13:28;37.51;35.32;52.92;;
66274;Laerm;58450;52.150;4.466;2022-12-05T01:15:55;39.61;35.14;58.10;;
66274;Laerm;58450;52.150;4.466;2022-12-05T01:18:23;36.70;34.68;41.00;;
66274;Laerm;58450;52.150;4.466;2022-12-05T01:20:51;36.95;34.72;48.76;;
66274;Laerm;58450;52.150;4.466;2022-12-05T01:23:19;43.91;34.53;67.29;;
66274;Laerm;58450;52.150;4.466;2022-12-05T01:25:49;37.14;34.76;42.70;;
66274;Laerm;58450;52.150;4.466;2022-12-05T01:28:17;38.72;34.46;51.83;;
66274;Laerm;58450;52.150;4.466;2022-12-05T01:30:47;36.65;34.35;39.33;;
66274;Laerm;58450;52.150;4.466;2022-12-05T01:33:15;36.99;34.89;42.61;;
66274;Laerm;58450;52.150;4.466;2022-12-05T01:35:43;42.25;34.80;63.06;;
66274;Laerm;58450;52.150;4.466;2022-12-05T01:38:11;37.06;34.95;43.00;;
66274;Laerm;58450;52.150;4.466;2022-12-05T01:40:39;39.13;34.74;59.72;;
66274;Laerm;58450;52.150;4.466;2022-12-05T01:43:13;49.75;35.09;72.63;;
66274;Laerm;58450;52.150;4.466;2022-12-05T01:45:42;39.91;34.71;59.86;;
66274;Laerm;58450;52.150;4.466;2022-12-05T01:48:18;36.84;34.61;48.93;;
66274;Laerm;58450;52.150;4.466;2022-12-05T01:50:47;46.72;34.32;70.38;;
66274;Laerm;58450;52.150;4.466;2022-12-05T01:53:16;43.38;34.80;67.76;;
66274;Laerm;58450;52.150;4.466;2022-12-05T01:55:45;37.32;34.81;52.45;;
66274;Laerm;58450;52.150;4.466;2022-12-05T01:58:14;37.29;34.93;51.25;;
66274;Laerm;58450;52.150;4.466;2022-12-05T02:00:42;37.25;34.71;52.05;;
66274;Laerm;58450;52.150;4.466;2022-12-05T02:03:14;37.54;34.41;56.20;;
66274;Laerm;58450;52.150;4.466;2022-12-05T02:05:45;37.37;34.70;51.78;;
66274;Laerm;58450;52.150;4.466;2022-12-05T02:08:13;37.23;34.92;47.44;;
66274;Laerm;58450;52.150;4.466;2022-12-05T02:10:42;40.12;34.63;59.66;;
66274;Laerm;58450;52.150;4.466;2022-12-05T02:13:24;36.89;34.60;48.98;;
66274;Laerm;58450;52.150;4.466;2022-12-05T02:16:00;36.99;34.50;45.96;;
66274;Laerm;58450;52.150;4.466;2022-12-05T02:18:41;37.81;34.76;54.81;;
66274;Laerm;58450;52.150;4.466;2022-12-05T02:21:38;36.77;34.70;48.73;;
66274;Laerm;58450;52.150;4.466;2022-12-05T02:24:57;41.14;34.73;62.54;;
66274;Laerm;58450;52.150;4.466;2022-12-05T02:27:55;40.41;34.59;57.94;;
66274;Laerm;58450;52.150;4.466;2022-12-05T02:30:37;41.79;34.78;62.28;;
66274;Laerm;58450;52.150;4.466;2022-12-05T02:33:10;38.57;35.13;56.62;;
66274;Laerm;58450;52.150;4.466;2022-12-05T02:35:51;37.36;34.93;41.80;;
66274;Laerm;58450;52.150;4.466;2022-12-05T02:38:26;37.06;34.95;41.04;;
66274;Laerm;58450;52.150;4.466;2022-12-05T02:41:04;40.47;34.57;60.08;;
66274;Laerm;58450;52.150;4.466;2022-12-05T02:43:40;37.30;34.84;49.35;;
66274;Laerm;58450;52.150;4.466;2022-12-05T02:46:16;37.07;35.24;42.26;;
66274;Laerm;58450;52.150;4.466;2022-12-05T02:48:46;37.98;35.05;55.73;;
66274;Laerm;58450;52.150;4.466;2022-12-05T02:51:19;36.97;35.11;40.69;;
66274;Laerm;58450;52.150;4.466;2022-12-05T02:53:49;36.94;35.09;42.94;;
66274;Laerm;58450;52.150;4.466;2022-12-05T02:56:17;52.72;35.02;70.18;;
66274;Laerm;58450;52.150;4.466;2022-12-05T02:58:50;38.69;34.96;59.57;;
66274;Laerm;58450;52.150;4.466;2022-12-05T03:01:22;37.46;35.19;50.73;;
66274;Laerm;58450;52.150;4.466;2022-12-05T03:03:49;37.53;35.06;45.82;;
66274;Laerm;58450;52.150;4.466;2022-12-05T03:06:21;44.71;34.75;59.28;;
66274;Laerm;58450;52.150;4.466;2022-12-05T03:08:54;44.88;35.12;66.00;;
66274;Laerm;58450;52.150;4.466;2022-12-05T03:11:25;37.58;34.67;46.95;;
66274;Laerm;58450;52.150;4.466;2022-12-05T03:13:57;37.53;35.26;48.16;;
66274;Laerm;58450;52.150;4.466;2022-12-05T03:16:31;63.50;35.03;95.43;;
66274;Laerm;58450;52.150;4.466;2022-12-05T03:19:02;37.58;35.05;50.95;;
66274;Laerm;58450;52.150;4.466;2022-12-05T03:21:34;40.25;34.76;62.41;;
66274;Laerm;58450;52.150;4.466;2022-12-05T03:24:05;45.83;34.70;71.63;;
66274;Laerm;58450;52.150;4.466;2022-12-05T03:26:36;38.17;35.06;57.05;;
66274;Laerm;58450;52.150;4.466;2022-12-05T03:29:16;41.56;35.09;58.15;;
66274;Laerm;58450;52.150;4.466;2022-12-05T03:31:54;38.01;35.14;53.18;;
66274;Laerm;58450;52.150;4.466;2022-12-05T03:34:36;39.17;35.55;61.17;;
66274;Laerm;58450;52.150;4.466;2022-12-05T03:37:19;40.75;35.01;59.98;;
66274;Laerm;58450;52.150;4.466;2022-12-05T03:39:53;38.09;34.86;50.93;;
66274;Laerm;58450;52.150;4.466;2022-12-05T03:42:27;41.49;35.53;61.13;;
66274;Laerm;58450;52.150;4.466;2022-12-05T03:45:00;41.44;35.35;56.71;;
66274;Laerm;58450;52.150;4.466;2022-12-05T03:47:37;68.37;35.19;100.46;;
66274;Laerm;58450;52.150;4.466;2022-12-05T03:50:10;43.37;33.65;64.04;;
66274;Laerm;58450;52.150;4.466;2022-12-05T03:52:41;37.69;34.62;60.05;;
66274;Laerm;58450;52.150;4.466;2022-12-05T03:55:11;37.07;34.27;49.06;;
66274;Laerm;58450;52.150;4.466;2022-12-05T03:57:43;38.24;34.69;56.95;;
66274;Laerm;58450;52.150;4.466;2022-12-05T04:02:51;40.40;34.41;60.65;;
66274;Laerm;58450;52.150;4.466;2022-12-05T04:05:24;37.37;34.54;50.42;;
66274;Laerm;58450;52.150;4.466;2022-12-05T04:07:57;37.59;34.48;55.75;;
66274;Laerm;58450;52.150;4.466;2022-12-05T04:10:29;38.13;34.48;53.73;;
66274;Laerm;58450;52.150;4.466;2022-12-05T04:12:59;37.80;34.63;45.01;;
66274;Laerm;58450;52.150;4.466;2022-12-05T04:15:44;39.11;34.96;56.96;;
66274;Laerm;58450;52.150;4.466;2022-12-05T04:18:33;38.51;35.13;54.00;;
66274;Laerm;58450;52.150;4.466;2022-12-05T04:21:03;39.32;35.58;56.96;;
66274;Laerm;58450;52.150;4.466;2022-12-05T04:23:48;39.32;35.20;55.57;;
66274;Laerm;58450;52.150;4.466;2022-12-05T04:26:43;43.98;35.78;59.11;;
66274;Laerm;58450;52.150;4.466;2022-12-05T04:29:16;41.42;34.69;55.33;;
66274;Laerm;58450;52.150;4.466;2022-12-05T04:31:50;47.42;35.69;70.31;;
66274;Laerm;58450;52.150;4.466;2022-12-05T04:34:23;38.56;35.45;47.43;;
66274;Laerm;58450;52.150;4.466;2022-12-05T04:36:55;39.66;35.45;56.45;;
66274;Laerm;58450;52.150;4.466;2022-12-05T04:39:28;41.95;35.96;53.72;;
66274;Laerm;58450;52.150;4.466;2022-12-05T04:42:01;39.09;36.03;45.92;;
66274;Laerm;58450;52.150;4.466;2022-12-05T04:44:32;49.05;36.43;69.10;;
66274;Laerm;58450;52.150;4.466;2022-12-05T04:47:02;39.75;35.96;48.84;;
66274;Laerm;58450;52.150;4.466;2022-12-05T04:49:34;40.81;36.56;47.27;;
66274;Laerm;58450;52.150;4.466;2022-12-05T04:52:07;41.15;36.04;53.65;;
66274;Laerm;58450;52.150;4.466;2022-12-05T04:54:37;39.95;36.37;47.72;;
66274;Laerm;58450;52.150;4.466;2022-12-05T04:57:11;42.00;36.51;56.76;;
66274;Laerm;58450;52.150;4.466;2022-12-05T04:59:39;43.79;36.84;59.05;;
66274;Laerm;58450;52.150;4.466;2022-12-05T05:02:08;41.15;36.76;56.99;;
66274;Laerm;58450;52.150;4.466;2022-12-05T05:04:40;51.92;36.61;71.35;;
66274;Laerm;58450;52.150;4.466;2022-12-05T05:07:10;43.12;37.03;56.46;;
66274;Laerm;58450;52.150;4.466;2022-12-05T05:09:38;41.29;37.06;49.60;;
66274;Laerm;58450;52.150;4.466;2022-12-05T05:12:06;40.43;36.64;51.17;;
66274;Laerm;58450;52.150;4.466;2022-12-05T05:14:33;46.14;37.33;61.69;;
66274;Laerm;58450;52.150;4.466;2022-12-05T05:17:01;43.58;36.91;57.71;;
66274;Laerm;58450;52.150;4.466;2022-12-05T05:19:28;46.96;37.70;60.96;;
66274;Laerm;58450;52.150;4.466;2022-12-05T05:21:57;42.87;37.60;52.99;;
66274;Laerm;58450;52.150;4.466;2022-12-05T05:24:25;46.70;37.38;63.87;;
66274;Laerm;58450;52.150;4.466;2022-12-05T05:26:52;45.19;37.80;65.39;;
66274;Laerm;58450;52.150;4.466;2022-12-05T05:29:19;43.88;37.78;55.35;;
66274;Laerm;58450;52.150;4.466;2022-12-05T05:31:46;48.30;38.31;63.56;;
66274;Laerm;58450;52.150;4.466;2022-12-05T05:34:14;44.51;37.77;61.21;;
66274;Laerm;58450;52.150;4.466;2022-12-05T05:36:41;42.97;38.93;50.64;;
66274;Laerm;58450;52.150;4.466;2022-12-05T05:39:13;44.89;39.10;55.08;;
66274;Laerm;58450;52.150;4.466;2022-12-05T05:41:41;42.80;38.62;54.66;;
66274;Laerm;58450;52.150;4.466;2022-12-05T05:44:09;50.22;38.37;66.60;;
66274;Laerm;58450;52.150;4.466;2022-12-05T05:46:36;43.58;39.87;49.83;;
66274;Laerm;58450;52.150;4.466;2022-12-05T05:49:04;48.36;38.71;64.01;;
66274;Laerm;58450;52.150;4.466;2022-12-05T05:51:31;42.92;38.59;52.77;;
66274;Laerm;58450;52.150;4.466;2022-12-05T05:53:59;44.34;38.46;61.44;;
66274;Laerm;58450;52.150;4.466;2022-12-05T05:56:28;50.99;38.89;67.26;;
66274;Laerm;58450;52.150;4.466;2022-12-05T05:58:57;50.23;39.55;69.01;;
66274;Laerm;58450;52.150;4.466;2022-12-05T06:01:25;42.82;38.01;54.75;;
66274;Laerm;58450;52.150;4.466;2022-12-05T06:03:52;46.72;38.55;66.56;;
66274;Laerm;58450;52.150;4.466;2022-12-05T06:06:21;48.66;38.42;72.73;;
66274;Laerm;58450;52.150;4.466;2022-12-05T06:08:49;49.79;39.40;64.20;;
66274;Laerm;58450;52.150;4.466;2022-12-05T06:11:17;44.87;40.26;56.16;;
66274;Laerm;58450;52.150;4.466;2022-12-05T06:13:46;48.17;41.83;64.41;;
66274;Laerm;58450;52.150;4.466;2022-12-05T06:16:16;50.25;41.00;66.74;;
66274;Laerm;58450;52.150;4.466;2022-12-05T06:18:44;47.75;41.30;61.27;;
66274;Laerm;58450;52.150;4.466;2022-12-05T06:21:11;45.23;41.07;53.44;;
66274;Laerm;58450;52.150;4.466;2022-12-05T06:23:39;48.26;40.43;69.16;;
66274;Laerm;58450;52.150;4.466;2022-12-05T06:26:09;53.82;42.29;67.68;;
66274;Laerm;58450;52.150;4.466;2022-12-05T06:28:37;49.03;41.27;65.41;;
66274;Laerm;58450;52.150;4.466;2022-12-05T06:31:10;53.65;40.80;67.49;;
66274;Laerm;58450;52.150;4.466;2022-12-05T06:33:37;47.67;40.35;62.18;;
66274;Laerm;58450;52.150;4.466;2022-12-05T06:36:07;44.89;39.11;62.64;;
66274;Laerm;58450;52.150;4.466;2022-12-05T06:38:34;51.31;44.31;65.20;;
66274;Laerm;58450;52.150;4.466;2022-12-05T06:41:04;47.11;41.98;56.05;;
66274;Laerm;58450;52.150;4.466;2022-12-05T06:43:31;51.46;41.03;65.81;;
66274;Laerm;58450;52.150;4.466;2022-12-05T06:46:03;48.65;41.29;65.49;;
66274;Laerm;58450;52.150;4.466;2022-12-05T06:48:32;49.69;40.50;65.54;;
66274;Laerm;58450;52.150;4.466;2022-12-05T06:50:59;48.17;40.12;64.11;;
66274;Laerm;58450;52.150;4.466;2022-12-05T06:53:27;49.39;40.82;63.87;;
66274;Laerm;58450;52.150;4.466;2022-12-05T06:55:55;53.56;40.84;67.97;;
66274;Laerm;58450;52.150;4.466;2022-12-05T06:58:23;49.70;40.63;63.24;;
66274;Laerm;58450;52.150;4.466;2022-12-05T07:00:50;48.26;40.61;63.78;;
66274;Laerm;58450;52.150;4.466;2022-12-05T07:03:36;49.54;41.70;66.48;;
66274;Laerm;58450;52.150;4.466;2022-12-05T07:06:05;48.17;41.70;66.92;;
66274;Laerm;58450;52.150;4.466;2022-12-05T07:08:33;49.32;40.61;68.27;;
66274;Laerm;58450;52.150;4.466;2022-12-05T07:11:01;47.37;41.16;60.78;;
66274;Laerm;58450;52.150;4.466;2022-12-05T07:13:28;50.16;41.94;71.14;;
66274;Laerm;58450;52.150;4.466;2022-12-05T07:15:55;47.14;41.50;62.77;;
66274;Laerm;58450;52.150;4.466;2022-12-05T07:18:23;50.15;41.47;63.55;;
66274;Laerm;58450;52.150;4.466;2022-12-05T07:20:59;49.03;42.08;71.85;;
66274;Laerm;58450;52.150;4.466;2022-12-05T07:23:27;48.14;42.02;64.47;;
66274;Laerm;58450;52.150;4.466;2022-12-05T07:25:54;59.57;42.00;76.41;;
66274;Laerm;58450;52.150;4.466;2022-12-05T07:28:23;52.07;42.24;65.86;;
66274;Laerm;58450;52.150;4.466;2022-12-05T07:30:58;50.69;41.13;68.56;;
66274;Laerm;58450;52.150;4.466;2022-12-05T07:33:25;48.08;40.45;62.99;;
66274;Laerm;58450;52.150;4.466;2022-12-05T07:35:59;48.32;41.66;69.69;;
66274;Laerm;58450;52.150;4.466;2022-12-05T07:38:26;48.07;41.69;59.60;;
66274;Laerm;58450;52.150;4.466;2022-12-05T07:40:54;48.82;41.42;58.71;;
66274;Laerm;58450;52.150;4.466;2022-12-05T07:43:21;51.48;42.91;73.34;;
66274;Laerm;58450;52.150;4.466;2022-12-05T07:45:49;48.23;42.37;64.29;;
66274;Laerm;58450;52.150;4.466;2022-12-05T07:48:16;50.18;42.26;63.83;;
66274;Laerm;58450;52.150;4.466;2022-12-05T07:50:43;48.14;41.06;60.52;;
66274;Laerm;58450;52.150;4.466;2022-12-05T07:53:12;52.91;40.88;71.09;;
66274;Laerm;58450;52.150;4.466;2022-12-05T07:55:39;50.18;40.72;71.66;;
66274;Laerm;58450;52.150;4.466;2022-12-05T07:58:06;48.57;40.34;60.37;;
66274;Laerm;58450;52.150;4.466;2022-12-05T08:00:33;49.21;41.22;67.50;;
66274;Laerm;58450;52.150;4.466;2022-12-05T08:03:00;48.85;41.23;63.27;;
66274;Laerm;58450;52.150;4.466;2022-12-05T08:05:28;46.57;41.01;56.65;;
66274;Laerm;58450;52.150;4.466;2022-12-05T08:07:56;52.65;40.00;68.82;;
66274;Laerm;58450;52.150;4.466;2022-12-05T08:10:24;48.58;41.05;63.73;;
66274;Laerm;58450;52.150;4.466;2022-12-05T08:12:51;54.01;41.70;69.01;;
66274;Laerm;58450;52.150;4.466;2022-12-05T08:15:19;53.62;41.21;70.32;;
66274;Laerm;58450;52.150;4.466;2022-12-05T08:17:46;53.07;40.98;72.01;;
66274;Laerm;58450;52.150;4.466;2022-12-05T08:20:13;56.02;40.24;72.07;;
66274;Laerm;58450;52.150;4.466;2022-12-05T08:22:41;55.79;40.95;74.33;;
66274;Laerm;58450;52.150;4.466;2022-12-05T08:25:08;53.33;42.88;78.16;;
66274;Laerm;58450;52.150;4.466;2022-12-05T08:27:37;49.40;41.36;67.98;;
66274;Laerm;58450;52.150;4.466;2022-12-05T08:30:05;47.99;39.61;66.17;;
66274;Laerm;58450;52.150;4.466;2022-12-05T08:32:33;49.25;40.53;72.73;;
66274;Laerm;58450;52.150;4.466;2022-12-05T08:35:00;48.66;39.60;68.77;;
66274;Laerm;58450;52.150;4.466;2022-12-05T08:37:27;56.02;41.45;73.98;;
66274;Laerm;58450;52.150;4.466;2022-12-05T08:39:54;48.48;42.09;63.80;;
66274;Laerm;58450;52.150;4.466;2022-12-05T08:42:21;49.40;41.48;70.85;;
66274;Laerm;58450;52.150;4.466;2022-12-05T08:44:50;50.36;40.70;66.84;;
66274;Laerm;58450;52.150;4.466;2022-12-05T08:47:17;49.14;40.84;70.48;;
66274;Laerm;58450;52.150;4.466;2022-12-05T08:49:44;50.57;40.76;69.40;;
66274;Laerm;58450;52.150;4.466;2022-12-05T08:52:11;47.55;40.21;63.12;;
66274;Laerm;58450;52.150;4.466;2022-12-05T08:54:39;51.44;40.58;68.38;;
66274;Laerm;58450;52.150;4.466;2022-12-05T08:57:06;46.31;39.00;63.89;;
66274;Laerm;58450;52.150;4.466;2022-12-05T08:59:33;49.33;39.45;68.67;;
66274;Laerm;58450;52.150;4.466;2022-12-05T09:02:01;49.87;39.71;67.68;;
66274;Laerm;58450;52.150;4.466;2022-12-05T09:04:29;57.86;40.81;75.23;;
66274;Laerm;58450;52.150;4.466;2022-12-05T09:06:56;44.83;40.08;51.44;;
66274;Laerm;58450;52.150;4.466;2022-12-05T09:09:23;46.64;39.89;61.08;;
66274;Laerm;58450;52.150;4.466;2022-12-05T09:11:50;48.66;40.13;70.92;;
66274;Laerm;58450;52.150;4.466;2022-12-05T09:14:17;53.46;39.77;78.79;;
66274;Laerm;58450;52.150;4.466;2022-12-05T09:16:46;51.78;40.36;69.27;;
66274;Laerm;58450;52.150;4.466;2022-12-05T09:19:17;50.16;39.86;67.09;;
66274;Laerm;58450;52.150;4.466;2022-12-05T09:21:45;44.84;38.78;60.76;;
66274;Laerm;58450;52.150;4.466;2022-12-05T09:24:13;48.49;40.43;70.43;;
66274;Laerm;58450;52.150;4.466;2022-12-05T09:26:42;57.59;40.04;79.17;;
66274;Laerm;58450;52.150;4.466;2022-12-05T09:29:10;47.31;40.32;68.09;;
66274;Laerm;58450;52.150;4.466;2022-12-05T09:31:38;45.98;39.29;60.20;;
66274;Laerm;58450;52.150;4.466;2022-12-05T09:34:07;46.97;39.11;69.97;;
66274;Laerm;58450;52.150;4.466;2022-12-05T09:36:36;46.10;40.16;63.42;;
66274;Laerm;58450;52.150;4.466;2022-12-05T09:39:05;48.71;40.58;63.31;;
66274;Laerm;58450;52.150;4.466;2022-12-05T09:41:51;58.01;40.29;80.36;;
66274;Laerm;58450;52.150;4.466;2022-12-05T09:44:42;55.33;39.92;81.06;;
66274;Laerm;58450;52.150;4.466;2022-12-05T09:47:16;62.09;40.48;80.05;;
66274;Laerm;58450;52.150;4.466;2022-12-05T09:49:50;50.61;40.42;70.86;;
66274;Laerm;58450;52.150;4.466;2022-12-05T09:52:26;48.16;40.58;63.53;;
66274;Laerm;58450;52.150;4.466;2022-12-05T09:54:54;59.69;39.51;79.43;;
66274;Laerm;58450;52.150;4.466;2022-12-05T09:57:27;60.91;40.25;79.06;;
66274;Laerm;58450;52.150;4.466;2022-12-05T09:59:57;53.21;40.68;77.88;;
66274;Laerm;58450;52.150;4.466;2022-12-05T10:02:31;48.16;39.03;60.70;;
66274;Laerm;58450;52.150;4.466;2022-12-05T10:05:05;49.89;39.74;70.27;;
66274;Laerm;58450;52.150;4.466;2022-12-05T10:07:40;46.76;40.30;66.04;;
66274;Laerm;58450;52.150;4.466;2022-12-05T10:10:22;46.29;39.78;59.45;;
66274;Laerm;58450;52.150;4.466;2022-12-05T10:13:01;50.64;39.98;66.54;;
66274;Laerm;58450;52.150;4.466;2022-12-05T10:15:37;46.16;40.17;59.41;;
66274;Laerm;58450;52.150;4.466;2022-12-05T10:18:11;47.65;38.61;69.21;;
66274;Laerm;58450;52.150;4.466;2022-12-05T10:20:46;48.95;39.34;67.76;;
66274;Laerm;58450;52.150;4.466;2022-12-05T10:23:19;50.35;41.80;66.28;;
66274;Laerm;58450;52.150;4.466;2022-12-05T10:25:51;46.62;41.10;61.36;;
66274;Laerm;58450;52.150;4.466;2022-12-05T10:28:32;50.90;40.20;73.90;;
66274;Laerm;58450;52.150;4.466;2022-12-05T10:31:04;46.80;40.78;64.01;;
66274;Laerm;58450;52.150;4.466;2022-12-05T10:33:36;44.16;39.80;59.37;;
66274;Laerm;58450;52.150;4.466;2022-12-05T10:36:10;47.10;39.23;69.05;;
66274;Laerm;58450;52.150;4.466;2022-12-05T10:38:40;47.25;40.26;60.18;;
66274;Laerm;58450;52.150;4.466;2022-12-05T10:41:10;44.30;39.09;50.60;;
66274;Laerm;58450;52.150;4.466;2022-12-05T10:43:39;50.80;40.14;71.52;;
66274;Laerm;58450;52.150;4.466;2022-12-05T10:46:09;46.66;39.67;61.39;;
66274;Laerm;58450;52.150;4.466;2022-12-05T10:48:38;46.47;39.25;68.73;;
66274;Laerm;58450;52.150;4.466;2022-12-05T10:51:12;47.32;39.43;66.80;;
66274;Laerm;58450;52.150;4.466;2022-12-05T10:53:43;44.92;39.83;51.33;;
66274;Laerm;58450;52.150;4.466;2022-12-05T10:56:39;49.58;40.71;64.00;;
66274;Laerm;58450;52.150;4.466;2022-12-05T10:59:09;48.03;40.69;67.03;;
66274;Laerm;58450;52.150;4.466;2022-12-05T11:01:43;58.92;40.31;72.59;;
66274;Laerm;58450;52.150;4.466;2022-12-05T11:04:19;53.24;40.71;72.80;;
66274;Laerm;58450;52.150;4.466;2022-12-05T11:06:51;46.01;40.36;55.54;;
66274;Laerm;58450;52.150;4.466;2022-12-05T11:09:22;48.07;40.76;63.94;;
66274;Laerm;58450;52.150;4.466;2022-12-05T11:12:11;46.97;40.45;60.15;;
66274;Laerm;58450;52.150;4.466;2022-12-05T11:14:52;52.61;40.36;75.34;;
66274;Laerm;58450;52.150;4.466;2022-12-05T11:17:23;51.96;40.59;75.44;;
66274;Laerm;58450;52.150;4.466;2022-12-05T11:19:51;45.81;40.36;56.34;;
66274;Laerm;58450;52.150;4.466;2022-12-05T11:22:18;49.02;39.74;71.47;;
66274;Laerm;58450;52.150;4.466;2022-12-05T11:24:48;48.84;40.13;65.51;;
66274;Laerm;58450;52.150;4.466;2022-12-05T11:27:20;47.17;41.08;60.40;;
66274;Laerm;58450;52.150;4.466;2022-12-05T11:29:56;56.79;40.79;85.55;;
66274;Laerm;58450;52.150;4.466;2022-12-05T11:32:26;46.18;38.92;67.04;;
66274;Laerm;58450;52.150;4.466;2022-12-05T11:35:00;46.83;40.94;66.47;;
66274;Laerm;58450;52.150;4.466;2022-12-05T11:37:34;47.68;40.93;58.19;;
66274;Laerm;58450;52.150;4.466;2022-12-05T11:40:13;49.60;41.04;70.26;;
66274;Laerm;58450;52.150;4.466;2022-12-05T11:42:54;47.62;40.35;65.10;;
66274;Laerm;58450;52.150;4.466;2022-12-05T11:45:41;51.92;40.75;68.98;;
66274;Laerm;58450;52.150;4.466;2022-12-05T11:48:24;48.12;39.83;59.91;;
66274;Laerm;58450;52.150;4.466;2022-12-05T11:51:14;50.41;42.14;73.86;;
66274;Laerm;58450;52.150;4.466;2022-12-05T11:53:58;49.05;40.29;64.84;;
66274;Laerm;58450;52.150;4.466;2022-12-05T11:56:35;55.44;40.53;69.19;;
66274;Laerm;58450;52.150;4.466;2022-12-05T11:59:37;55.64;45.18;70.74;;
66274;Laerm;58450;52.150;4.466;2022-12-05T12:02:22;53.73;44.33;62.42;;
66274;Laerm;58450;52.150;4.466;2022-12-05T12:05:02;53.28;46.40;60.28;;
66274;Laerm;58450;52.150;4.466;2022-12-05T12:07:43;48.95;44.27;61.20;;
66274;Laerm;58450;52.150;4.466;2022-12-05T12:10:28;51.80;44.10;65.74;;
66274;Laerm;58450;52.150;4.466;2022-12-05T12:13:15;50.07;40.42;65.33;;
66274;Laerm;58450;52.150;4.466;2022-12-05T12:16:02;47.64;40.45;64.24;;
66274;Laerm;58450;52.150;4.466;2022-12-05T12:19:05;49.56;40.84;66.17;;
66274;Laerm;58450;52.150;4.466;2022-12-05T12:21:48;46.96;40.39;61.19;;
66274;Laerm;58450;52.150;4.466;2022-12-05T12:24:26;51.33;39.34;69.03;;
66274;Laerm;58450;52.150;4.466;2022-12-05T12:27:05;47.15;40.56;64.42;;
66274;Laerm;58450;52.150;4.466;2022-12-05T12:29:51;55.17;40.22;69.86;;
66274;Laerm;58450;52.150;4.466;2022-12-05T12:32:32;45.99;39.12;63.44;;
66274;Laerm;58450;52.150;4.466;2022-12-05T12:35:28;48.79;39.03;72.31;;
66274;Laerm;58450;52.150;4.466;2022-12-05T12:38:13;45.36;40.83;62.38;;
66274;Laerm;58450;52.150;4.466;2022-12-05T12:40:47;53.51;41.06;65.71;;
66274;Laerm;58450;52.150;4.466;2022-12-05T12:43:29;53.32;41.37;74.14;;
66274;Laerm;58450;52.150;4.466;2022-12-05T12:46:14;51.38;41.01;69.80;;
66274;Laerm;58450;52.150;4.466;2022-12-05T12:48:57;49.55;40.43;66.66;;
66274;Laerm;58450;52.150;4.466;2022-12-05T12:51:28;51.39;41.54;72.77;;
66274;Laerm;58450;52.150;4.466;2022-12-05T12:54:08;51.65;43.37;64.18;;
66274;Laerm;58450;52.150;4.466;2022-12-05T12:56:48;51.73;41.57;68.85;;
66274;Laerm;58450;52.150;4.466;2022-12-05T12:59:29;49.07;41.41;63.96;;
66274;Laerm;58450;52.150;4.466;2022-12-05T13:02:11;53.99;41.40;67.91;;
66274;Laerm;58450;52.150;4.466;2022-12-05T13:04:47;45.96;40.65;69.73;;
66274;Laerm;58450;52.150;4.466;2022-12-05T13:07:19;49.61;40.91;62.78;;
66274;Laerm;58450;52.150;4.466;2022-12-05T13:09:50;49.95;41.14;76.59;;
66274;Laerm;58450;52.150;4.466;2022-12-05T13:12:24;55.80;41.65;72.50;;
66274;Laerm;58450;52.150;4.466;2022-12-05T13:14:56;51.25;41.41;64.00;;
66274;Laerm;58450;52.150;4.466;2022-12-05T13:17:28;49.79;42.27;66.84;;
66274;Laerm;58450;52.150;4.466;2022-12-05T13:19:57;48.83;40.97;63.14;;
66274;Laerm;58450;52.150;4.466;2022-12-05T13:22:26;48.05;42.00;61.90;;
66274;Laerm;58450;52.150;4.466;2022-12-05T13:24:54;49.80;41.98;65.90;;
66274;Laerm;58450;52.150;4.466;2022-12-05T13:27:24;54.56;47.17;69.89;;
66274;Laerm;58450;52.150;4.466;2022-12-05T13:29:53;49.29;44.37;66.30;;
66274;Laerm;58450;52.150;4.466;2022-12-05T13:32:32;54.56;43.15;74.07;;
66274;Laerm;58450;52.150;4.466;2022-12-05T13:35:07;47.77;41.19;69.54;;
66274;Laerm;58450;52.150;4.466;2022-12-05T13:37:43;49.73;42.32;67.40;;
66274;Laerm;58450;52.150;4.466;2022-12-05T13:40:30;49.08;41.42;73.16;;
66274;Laerm;58450;52.150;4.466;2022-12-05T13:43:18;49.17;40.44;67.31;;
66274;Laerm;58450;52.150;4.466;2022-12-05T13:46:01;54.29;43.25;66.77;;
66274;Laerm;58450;52.150;4.466;2022-12-05T13:48:34;53.85;40.41;70.92;;
66274;Laerm;58450;52.150;4.466;2022-12-05T13:51:05;50.07;41.89;68.57;;
66274;Laerm;58450;52.150;4.466;2022-12-05T13:53:37;51.54;40.74;70.03;;
66274;Laerm;58450;52.150;4.466;2022-12-05T13:56:24;48.53;41.52;71.53;;
66274;Laerm;58450;52.150;4.466;2022-12-05T13:58:53;46.82;41.26;57.17;;
66274;Laerm;58450;52.150;4.466;2022-12-05T14:01:40;48.18;41.48;59.17;;
66274;Laerm;58450;52.150;4.466;2022-12-05T14:07:07;52.30;42.53;76.22;;
66274;Laerm;58450;52.150;4.466;2022-12-05T14:09:49;48.46;42.33;62.59;;
66274;Laerm;58450;52.150;4.466;2022-12-05T14:12:46;48.02;41.89;68.43;;
66274;Laerm;58450;52.150;4.466;2022-12-05T14:15:31;51.92;42.70;67.73;;
66274;Laerm;58450;52.150;4.466;2022-12-05T14:18:05;50.63;42.70;73.12;;
66274;Laerm;58450;52.150;4.466;2022-12-05T14:21:01;49.18;42.35;62.18;;